CSZ2868 ZGSZ-ZJHK
Flight info
| Callsign | CSZ2868 |
|---|---|
| Flight time | 0h 55m |
| Altitude | 25600 |
| Route | TOMUD2 TOMUD R200 BIGRO G221 GIVIV W605 DOMGO |
| Aircraft | B738/M-SDE2E3FGHIRWXY/LB1 |
Departure
| Time | 2026-05-07 11:32 |
|---|---|
| Airport | Shenzhen Bao'an International Airport (ZGSZ) |
Arrival
| Time | 2026-05-07 12:27 |
|---|---|
| Airport | Haikou Meilan International Airport (ZJHK) |
| Time | Latitude | Longitude | Altitude | Speed | Heading |
|---|---|---|---|---|---|
| 2026-05-07 11:02 | 22.63497 | 113.80789 | 21 ft | 0 kts | 186° |
| 2026-05-07 11:16 | 22.63510 | 113.80791 | 21 ft | 2 kts | 186° |
| 2026-05-07 11:17 | 22.63525 | 113.80793 | 21 ft | 1 kts | 187° |
| 2026-05-07 11:17 | 22.63534 | 113.80794 | 21 ft | 2 kts | 179° |
| 2026-05-07 11:17 | 22.63548 | 113.80789 | 21 ft | 2 kts | 149° |
| 2026-05-07 11:17 | 22.63559 | 113.80778 | 21 ft | 2 kts | 122° |
| 2026-05-07 11:18 | 22.63565 | 113.80763 | 21 ft | 2 kts | 97° |
| 2026-05-07 11:18 | 22.63563 | 113.80747 | 21 ft | 1 kts | 70° |
| 2026-05-07 11:18 | 22.63560 | 113.80740 | 21 ft | 1 kts | 60° |
| 2026-05-07 11:18 | 22.63559 | 113.80738 | 21 ft | 0 kts | 63° |
| 2026-05-07 11:20 | 22.63563 | 113.80746 | 21 ft | 2 kts | 64° |
| 2026-05-07 11:20 | 22.63571 | 113.80763 | 21 ft | 2 kts | 64° |
| 2026-05-07 11:21 | 22.63581 | 113.80785 | 21 ft | 3 kts | 63° |
| 2026-05-07 11:21 | 22.63592 | 113.80810 | 21 ft | 3 kts | 63° |
| 2026-05-07 11:21 | 22.63605 | 113.80838 | 21 ft | 5 kts | 64° |
| 2026-05-07 11:21 | 22.63627 | 113.80875 | 21 ft | 6 kts | 41° |
| 2026-05-07 11:22 | 22.63671 | 113.80879 | 21 ft | 7 kts | 339° |
| 2026-05-07 11:22 | 22.63728 | 113.80849 | 21 ft | 10 kts | 333° |
| 2026-05-07 11:22 | 22.63807 | 113.80806 | 21 ft | 14 kts | 333° |
| 2026-05-07 11:22 | 22.63902 | 113.80753 | 21 ft | 15 kts | 333° |
| 2026-05-07 11:23 | 22.63987 | 113.80707 | 21 ft | 10 kts | 333° |
| 2026-05-07 11:23 | 22.64008 | 113.80656 | 21 ft | 8 kts | 252° |
| 2026-05-07 11:23 | 22.63979 | 113.80592 | 21 ft | 10 kts | 243° |
| 2026-05-07 11:23 | 22.63941 | 113.80512 | 21 ft | 13 kts | 243° |
| 2026-05-07 11:24 | 22.63895 | 113.80415 | 21 ft | 15 kts | 243° |
| 2026-05-07 11:24 | 22.63841 | 113.80299 | 21 ft | 18 kts | 243° |
| 2026-05-07 11:24 | 22.63783 | 113.80176 | 21 ft | 18 kts | 243° |
| 2026-05-07 11:24 | 22.63727 | 113.80057 | 21 ft | 17 kts | 243° |
| 2026-05-07 11:25 | 22.63675 | 113.79945 | 21 ft | 12 kts | 243° |
| 2026-05-07 11:25 | 22.63638 | 113.79868 | 21 ft | 11 kts | 243° |
| 2026-05-07 11:25 | 22.63599 | 113.79786 | 21 ft | 13 kts | 243° |
| 2026-05-07 11:25 | 22.63621 | 113.79704 | 21 ft | 13 kts | 329° |
| 2026-05-07 11:26 | 22.63719 | 113.79650 | 21 ft | 17 kts | 333° |
| 2026-05-07 11:26 | 22.63848 | 113.79579 | 21 ft | 23 kts | 333° |
| 2026-05-07 11:26 | 22.64014 | 113.79488 | 21 ft | 28 kts | 333° |
| 2026-05-07 11:26 | 22.64187 | 113.79393 | 21 ft | 27 kts | 333° |
| 2026-05-07 11:27 | 22.64355 | 113.79301 | 21 ft | 26 kts | 333° |
| 2026-05-07 11:27 | 22.64518 | 113.79211 | 21 ft | 25 kts | 333° |
| 2026-05-07 11:27 | 22.64674 | 113.79125 | 21 ft | 25 kts | 333° |
| 2026-05-07 11:27 | 22.64830 | 113.79041 | 21 ft | 24 kts | 333° |
| 2026-05-07 11:28 | 22.64976 | 113.78964 | 21 ft | 19 kts | 334° |
| 2026-05-07 11:28 | 22.65091 | 113.78897 | 21 ft | 18 kts | 333° |
| 2026-05-07 11:28 | 22.65202 | 113.78836 | 21 ft | 18 kts | 333° |
| 2026-05-07 11:28 | 22.65222 | 113.78825 | 21 ft | 18 kts | 333° |
| 2026-05-07 11:29 | 22.65336 | 113.78763 | 21 ft | 18 kts | 333° |
| 2026-05-07 11:29 | 22.65453 | 113.78698 | 21 ft | 17 kts | 334° |
| 2026-05-07 11:29 | 22.65504 | 113.78645 | 21 ft | 6 kts | 275° |
| 2026-05-07 11:30 | 22.65494 | 113.78606 | 21 ft | 8 kts | 243° |
| 2026-05-07 11:30 | 22.65464 | 113.78546 | 21 ft | 10 kts | 241° |
| 2026-05-07 11:30 | 22.65429 | 113.78504 | 21 ft | 5 kts | 194° |
| 2026-05-07 11:30 | 22.65399 | 113.78509 | 21 ft | 4 kts | 155° |
| 2026-05-07 11:31 | 22.65397 | 113.78511 | 21 ft | 0 kts | 154° |
| 2026-05-07 11:31 | 22.65391 | 113.78514 | 21 ft | 4 kts | 154° |
| 2026-05-07 11:31 | 22.65192 | 113.78622 | 21 ft | 68 kts | 153° |
| 2026-05-07 11:31 | 22.64565 | 113.78966 | 21 ft | 132 kts | 153° |
| 2026-05-07 11:32 | 22.62630 | 113.80029 | 966 ft | 159 kts | 160° |
| 2026-05-07 11:32 | 22.61550 | 113.80065 | 1585 ft | 163 kts | 198° |
| 2026-05-07 11:32 | 22.60494 | 113.79635 | 2253 ft | 163 kts | 198° |
| 2026-05-07 11:33 | 22.59402 | 113.79243 | 2830 ft | 167 kts | 195° |
| 2026-05-07 11:33 | 22.58295 | 113.78883 | 3375 ft | 173 kts | 195° |
| 2026-05-07 11:33 | 22.57061 | 113.78487 | 3763 ft | 193 kts | 196° |
| 2026-05-07 11:33 | 22.55722 | 113.78053 | 4248 ft | 209 kts | 196° |
| 2026-05-07 11:34 | 22.54261 | 113.77581 | 4758 ft | 225 kts | 197° |
| 2026-05-07 11:34 | 22.52716 | 113.77081 | 5260 ft | 241 kts | 197° |
| 2026-05-07 11:34 | 22.51071 | 113.76540 | 5821 ft | 254 kts | 200° |
| 2026-05-07 11:34 | 22.49485 | 113.75712 | 6614 ft | 255 kts | 218° |
| 2026-05-07 11:35 | 22.48347 | 113.74253 | 7377 ft | 258 kts | 245° |
| 2026-05-07 11:35 | 22.47844 | 113.72399 | 8228 ft | 258 kts | 262° |
| 2026-05-07 11:35 | 22.47659 | 113.70482 | 9025 ft | 261 kts | 265° |
| 2026-05-07 11:35 | 22.47529 | 113.68549 | 9862 ft | 263 kts | 266° |
| 2026-05-07 11:36 | 22.47398 | 113.66575 | 10618 ft | 269 kts | 266° |
| 2026-05-07 11:36 | 22.47252 | 113.64476 | 11158 ft | 285 kts | 266° |
| 2026-05-07 11:36 | 22.47092 | 113.62281 | 11689 ft | 300 kts | 265° |
| 2026-05-07 11:36 | 22.46755 | 113.59999 | 12171 ft | 316 kts | 255° |
| 2026-05-07 11:37 | 22.45768 | 113.57853 | 12676 ft | 332 kts | 232° |
| 2026-05-07 11:37 | 22.44064 | 113.56090 | 13489 ft | 337 kts | 222° |
| 2026-05-07 11:37 | 22.42248 | 113.54471 | 14267 ft | 341 kts | 221° |
| 2026-05-07 11:37 | 22.40421 | 113.52853 | 15028 ft | 346 kts | 221° |
| 2026-05-07 11:38 | 22.38438 | 113.51349 | 15778 ft | 352 kts | 213° |
| 2026-05-07 11:38 | 22.36189 | 113.50184 | 16505 ft | 360 kts | 202° |
| 2026-05-07 11:38 | 22.33797 | 113.49394 | 17238 ft | 365 kts | 197° |
| 2026-05-07 11:38 | 22.31280 | 113.48749 | 17928 ft | 370 kts | 195° |
| 2026-05-07 11:39 | 22.28773 | 113.48173 | 18589 ft | 375 kts | 195° |
| 2026-05-07 11:39 | 22.26210 | 113.47536 | 19243 ft | 378 kts | 198° |
| 2026-05-07 11:39 | 22.23737 | 113.46549 | 19913 ft | 378 kts | 209° |
| 2026-05-07 11:39 | 22.21481 | 113.45060 | 20550 ft | 378 kts | 221° |
| 2026-05-07 11:40 | 22.19554 | 113.43128 | 21163 ft | 379 kts | 232° |
| 2026-05-07 11:40 | 22.18018 | 113.40814 | 21763 ft | 379 kts | 243° |
| 2026-05-07 11:40 | 22.16954 | 113.38254 | 22357 ft | 379 kts | 254° |
| 2026-05-07 11:40 | 22.16282 | 113.35510 | 22922 ft | 381 kts | 260° |
| 2026-05-07 11:41 | 22.15726 | 113.32673 | 23527 ft | 384 kts | 259° |
| 2026-05-07 11:41 | 22.15115 | 113.29836 | 24044 ft | 389 kts | 257° |
| 2026-05-07 11:41 | 22.14396 | 113.27026 | 24620 ft | 393 kts | 255° |
| 2026-05-07 11:41 | 22.13566 | 113.24221 | 25238 ft | 394 kts | 253° |
| 2026-05-07 11:42 | 22.12624 | 113.21455 | 25467 ft | 399 kts | 251° |
| 2026-05-07 11:42 | 22.11552 | 113.18654 | 25491 ft | 400 kts | 249° |
| 2026-05-07 11:42 | 22.10447 | 113.15937 | 25493 ft | 394 kts | 249° |
| 2026-05-07 11:42 | 22.09326 | 113.13255 | 25493 ft | 391 kts | 248° |
| 2026-05-07 11:43 | 22.08218 | 113.10626 | 25492 ft | 393 kts | 248° |
| 2026-05-07 11:43 | 22.07072 | 113.07902 | 25490 ft | 392 kts | 248° |
| 2026-05-07 11:43 | 22.05947 | 113.05223 | 25488 ft | 391 kts | 248° |
| 2026-05-07 11:43 | 22.04825 | 113.02546 | 25486 ft | 392 kts | 248° |
| 2026-05-07 11:44 | 22.03701 | 112.99856 | 25486 ft | 392 kts | 249° |
| 2026-05-07 11:44 | 22.02617 | 112.97186 | 25488 ft | 391 kts | 249° |
| 2026-05-07 11:44 | 22.01556 | 112.94479 | 25486 ft | 391 kts | 250° |
| 2026-05-07 11:44 | 22.00504 | 112.91756 | 25488 ft | 392 kts | 250° |
| 2026-05-07 11:45 | 21.99454 | 112.89032 | 25489 ft | 392 kts | 250° |
| 2026-05-07 11:45 | 21.98406 | 112.86317 | 25491 ft | 393 kts | 250° |
| 2026-05-07 11:45 | 21.97362 | 112.83623 | 25492 ft | 392 kts | 250° |
| 2026-05-07 11:45 | 21.96314 | 112.80932 | 25494 ft | 391 kts | 250° |
| 2026-05-07 11:46 | 21.95233 | 112.78211 | 25491 ft | 391 kts | 249° |
| 2026-05-07 11:46 | 21.94150 | 112.75520 | 25493 ft | 392 kts | 249° |
| 2026-05-07 11:46 | 21.93072 | 112.72856 | 25494 ft | 391 kts | 249° |
| 2026-05-07 11:46 | 21.91985 | 112.70173 | 25493 ft | 391 kts | 249° |
| 2026-05-07 11:47 | 21.90897 | 112.67487 | 25492 ft | 392 kts | 249° |
| 2026-05-07 11:47 | 21.89803 | 112.64784 | 25490 ft | 392 kts | 249° |
| 2026-05-07 11:47 | 21.88728 | 112.62128 | 25490 ft | 392 kts | 249° |
| 2026-05-07 11:47 | 21.87631 | 112.59418 | 25487 ft | 392 kts | 249° |
| 2026-05-07 11:48 | 21.86546 | 112.56735 | 25488 ft | 392 kts | 249° |
| 2026-05-07 11:48 | 21.85463 | 112.54056 | 25488 ft | 392 kts | 249° |
| 2026-05-07 11:48 | 21.84381 | 112.51356 | 25490 ft | 392 kts | 249° |
| 2026-05-07 11:48 | 21.83320 | 112.48679 | 25491 ft | 392 kts | 249° |
| 2026-05-07 11:49 | 21.82249 | 112.45969 | 25496 ft | 393 kts | 250° |
| 2026-05-07 11:49 | 21.81181 | 112.43270 | 25501 ft | 393 kts | 250° |
| 2026-05-07 11:49 | 21.80101 | 112.40543 | 25502 ft | 393 kts | 249° |
| 2026-05-07 11:49 | 21.79034 | 112.37853 | 25502 ft | 393 kts | 249° |
| 2026-05-07 11:50 | 21.77967 | 112.35166 | 25501 ft | 393 kts | 250° |
| 2026-05-07 11:50 | 21.76888 | 112.32452 | 25500 ft | 393 kts | 249° |
| 2026-05-07 11:50 | 21.75807 | 112.29733 | 25502 ft | 393 kts | 249° |
| 2026-05-07 11:50 | 21.74731 | 112.27029 | 25502 ft | 392 kts | 249° |
| 2026-05-07 11:51 | 21.73663 | 112.24348 | 25504 ft | 392 kts | 249° |
| 2026-05-07 11:51 | 21.72597 | 112.21674 | 25502 ft | 392 kts | 249° |
| 2026-05-07 11:51 | 21.71518 | 112.18966 | 25502 ft | 392 kts | 249° |
| 2026-05-07 11:51 | 21.70445 | 112.16277 | 25499 ft | 393 kts | 249° |
| 2026-05-07 11:52 | 21.69369 | 112.13583 | 25497 ft | 393 kts | 249° |
| 2026-05-07 11:52 | 21.68284 | 112.10868 | 25497 ft | 393 kts | 249° |
| 2026-05-07 11:52 | 21.67205 | 112.08170 | 25498 ft | 393 kts | 249° |
| 2026-05-07 11:52 | 21.66126 | 112.05474 | 25497 ft | 393 kts | 249° |
| 2026-05-07 11:53 | 21.65047 | 112.02778 | 25499 ft | 393 kts | 249° |
| 2026-05-07 11:53 | 21.63974 | 112.00099 | 25497 ft | 393 kts | 249° |
| 2026-05-07 11:53 | 21.62890 | 111.97394 | 25497 ft | 393 kts | 249° |
| 2026-05-07 11:53 | 21.61803 | 111.94682 | 25497 ft | 393 kts | 249° |
| 2026-05-07 11:54 | 21.60727 | 111.92002 | 25497 ft | 393 kts | 249° |
| 2026-05-07 11:54 | 21.59656 | 111.89330 | 25495 ft | 393 kts | 249° |
| 2026-05-07 11:54 | 21.58550 | 111.86602 | 25491 ft | 393 kts | 248° |
| 2026-05-07 11:54 | 21.57366 | 111.83938 | 25489 ft | 395 kts | 244° |
| 2026-05-07 11:55 | 21.55944 | 111.81432 | 25485 ft | 396 kts | 238° |
| 2026-05-07 11:55 | 21.54287 | 111.79073 | 25484 ft | 398 kts | 234° |
| 2026-05-07 11:55 | 21.52495 | 111.76767 | 25483 ft | 398 kts | 232° |
| 2026-05-07 11:55 | 21.50692 | 111.74539 | 25482 ft | 399 kts | 231° |
| 2026-05-07 11:56 | 21.48837 | 111.72269 | 25482 ft | 399 kts | 232° |
| 2026-05-07 11:56 | 21.46996 | 111.70010 | 25481 ft | 399 kts | 232° |
| 2026-05-07 11:56 | 21.45190 | 111.67779 | 25481 ft | 399 kts | 232° |
| 2026-05-07 11:56 | 21.43372 | 111.65520 | 25481 ft | 399 kts | 232° |
| 2026-05-07 11:57 | 21.41552 | 111.63245 | 25479 ft | 399 kts | 232° |
| 2026-05-07 11:57 | 21.39737 | 111.60972 | 25480 ft | 399 kts | 232° |
| 2026-05-07 11:57 | 21.37947 | 111.58730 | 25477 ft | 399 kts | 232° |
| 2026-05-07 11:57 | 21.36139 | 111.56464 | 25478 ft | 400 kts | 232° |
| 2026-05-07 11:58 | 21.34332 | 111.54201 | 25479 ft | 400 kts | 232° |
| 2026-05-07 11:58 | 21.32519 | 111.51928 | 25478 ft | 400 kts | 232° |
| 2026-05-07 11:58 | 21.30712 | 111.49664 | 25479 ft | 401 kts | 232° |
| 2026-05-07 11:58 | 21.28894 | 111.47387 | 25478 ft | 401 kts | 232° |
| 2026-05-07 11:59 | 21.27076 | 111.45110 | 25475 ft | 401 kts | 232° |
| 2026-05-07 11:59 | 21.25275 | 111.42856 | 25475 ft | 401 kts | 232° |
| 2026-05-07 11:59 | 21.23445 | 111.40565 | 25473 ft | 401 kts | 232° |
| 2026-05-07 11:59 | 21.21639 | 111.38306 | 25470 ft | 400 kts | 232° |
| 2026-05-07 12:00 | 21.19838 | 111.36053 | 25468 ft | 400 kts | 232° |
| 2026-05-07 12:00 | 21.18025 | 111.33787 | 25466 ft | 400 kts | 232° |
| 2026-05-07 12:00 | 21.16203 | 111.31511 | 25465 ft | 400 kts | 232° |
| 2026-05-07 12:00 | 21.14393 | 111.29250 | 25464 ft | 400 kts | 232° |
| 2026-05-07 12:01 | 21.12570 | 111.26975 | 25464 ft | 400 kts | 232° |
| 2026-05-07 12:01 | 21.10771 | 111.24729 | 25464 ft | 400 kts | 232° |
| 2026-05-07 12:01 | 21.08938 | 111.22443 | 25463 ft | 400 kts | 232° |
| 2026-05-07 12:01 | 21.07137 | 111.20198 | 25464 ft | 401 kts | 232° |
| 2026-05-07 12:02 | 21.05324 | 111.17939 | 25463 ft | 401 kts | 232° |
| 2026-05-07 12:02 | 21.03507 | 111.15675 | 25464 ft | 401 kts | 232° |
| 2026-05-07 12:02 | 21.01680 | 111.13399 | 25468 ft | 400 kts | 232° |
| 2026-05-07 12:02 | 20.99880 | 111.11159 | 25474 ft | 400 kts | 231° |
| 2026-05-07 12:03 | 20.98041 | 111.08894 | 25479 ft | 399 kts | 230° |
| 2026-05-07 12:03 | 20.96126 | 111.06754 | 25482 ft | 400 kts | 225° |
| 2026-05-07 12:03 | 20.93901 | 111.04919 | 25483 ft | 404 kts | 214° |
| 2026-05-07 12:03 | 20.91422 | 111.03463 | 25481 ft | 405 kts | 208° |
| 2026-05-07 12:04 | 20.88849 | 111.02187 | 25481 ft | 406 kts | 206° |
| 2026-05-07 12:04 | 20.86240 | 111.00985 | 25481 ft | 407 kts | 205° |
| 2026-05-07 12:04 | 20.83636 | 110.99808 | 25480 ft | 407 kts | 205° |
| 2026-05-07 12:04 | 20.81029 | 110.98624 | 25479 ft | 406 kts | 205° |
| 2026-05-07 12:05 | 20.78432 | 110.97433 | 25478 ft | 406 kts | 206° |
| 2026-05-07 12:05 | 20.75833 | 110.96228 | 25477 ft | 406 kts | 206° |
| 2026-05-07 12:05 | 20.73250 | 110.95019 | 25477 ft | 406 kts | 206° |
| 2026-05-07 12:05 | 20.70628 | 110.93786 | 25477 ft | 405 kts | 206° |
| 2026-05-07 12:06 | 20.68094 | 110.92590 | 25455 ft | 397 kts | 206° |
| 2026-05-07 12:06 | 20.65578 | 110.91405 | 25238 ft | 387 kts | 206° |
| 2026-05-07 12:06 | 20.63144 | 110.90256 | 24864 ft | 382 kts | 206° |
| 2026-05-07 12:06 | 20.60724 | 110.89109 | 24372 ft | 381 kts | 206° |
| 2026-05-07 12:07 | 20.58291 | 110.87954 | 23855 ft | 380 kts | 206° |
| 2026-05-07 12:07 | 20.55886 | 110.86812 | 23341 ft | 379 kts | 206° |
| 2026-05-07 12:07 | 20.53446 | 110.85660 | 22827 ft | 378 kts | 206° |
| 2026-05-07 12:07 | 20.51001 | 110.84617 | 22267 ft | 379 kts | 201° |
| 2026-05-07 12:08 | 20.48471 | 110.83894 | 21739 ft | 380 kts | 192° |
| 2026-05-07 12:08 | 20.45828 | 110.83504 | 21278 ft | 378 kts | 187° |
| 2026-05-07 12:08 | 20.43232 | 110.83282 | 20826 ft | 375 kts | 185° |
| 2026-05-07 12:08 | 20.40596 | 110.83115 | 20077 ft | 382 kts | 185° |
| 2026-05-07 12:09 | 20.37927 | 110.82957 | 19411 ft | 384 kts | 185° |
| 2026-05-07 12:09 | 20.35293 | 110.82792 | 18965 ft | 379 kts | 185° |
| 2026-05-07 12:09 | 20.32638 | 110.82614 | 18531 ft | 374 kts | 185° |
| 2026-05-07 12:09 | 20.30052 | 110.82433 | 18139 ft | 368 kts | 185° |
| 2026-05-07 12:10 | 20.27503 | 110.82246 | 17664 ft | 366 kts | 185° |
| 2026-05-07 12:10 | 20.24977 | 110.82056 | 17174 ft | 363 kts | 185° |
| 2026-05-07 12:10 | 20.22493 | 110.81724 | 16686 ft | 360 kts | 193° |
| 2026-05-07 12:10 | 20.20141 | 110.80823 | 16192 ft | 355 kts | 213° |
| 2026-05-07 12:11 | 20.18329 | 110.79107 | 15724 ft | 348 kts | 235° |
| 2026-05-07 12:11 | 20.17221 | 110.76852 | 15237 ft | 343 kts | 253° |
| 2026-05-07 12:11 | 20.16631 | 110.74429 | 14748 ft | 340 kts | 258° |
| 2026-05-07 12:11 | 20.16117 | 110.71963 | 14246 ft | 338 kts | 258° |
| 2026-05-07 12:12 | 20.15621 | 110.69564 | 13770 ft | 333 kts | 258° |
| 2026-05-07 12:12 | 20.15123 | 110.67162 | 13297 ft | 328 kts | 258° |
| 2026-05-07 12:12 | 20.14641 | 110.64800 | 12818 ft | 324 kts | 259° |
| 2026-05-07 12:12 | 20.14177 | 110.62475 | 12359 ft | 320 kts | 259° |
| 2026-05-07 12:13 | 20.13718 | 110.60170 | 11896 ft | 319 kts | 259° |
| 2026-05-07 12:13 | 20.13259 | 110.57872 | 11447 ft | 317 kts | 259° |
| 2026-05-07 12:13 | 20.12800 | 110.55576 | 11054 ft | 314 kts | 259° |
| 2026-05-07 12:13 | 20.12352 | 110.53347 | 10749 ft | 307 kts | 259° |
| 2026-05-07 12:14 | 20.11908 | 110.51144 | 10556 ft | 298 kts | 259° |
| 2026-05-07 12:14 | 20.11478 | 110.49007 | 10137 ft | 297 kts | 259° |
| 2026-05-07 12:14 | 20.11044 | 110.46857 | 9735 ft | 296 kts | 259° |
| 2026-05-07 12:14 | 20.10617 | 110.44730 | 9341 ft | 295 kts | 259° |
| 2026-05-07 12:15 | 20.10188 | 110.42602 | 8964 ft | 293 kts | 259° |
| 2026-05-07 12:15 | 20.09760 | 110.40479 | 8602 ft | 291 kts | 259° |
| 2026-05-07 12:15 | 20.09338 | 110.38390 | 8239 ft | 289 kts | 258° |
| 2026-05-07 12:15 | 20.08917 | 110.36329 | 7871 ft | 287 kts | 258° |
| 2026-05-07 12:16 | 20.08489 | 110.34245 | 7521 ft | 284 kts | 258° |
| 2026-05-07 12:16 | 20.08078 | 110.32251 | 7457 ft | 270 kts | 258° |
| 2026-05-07 12:16 | 20.07684 | 110.30340 | 7416 ft | 256 kts | 258° |
| 2026-05-07 12:16 | 20.07317 | 110.28549 | 7403 ft | 242 kts | 258° |
| 2026-05-07 12:17 | 20.06967 | 110.26845 | 7337 ft | 232 kts | 258° |
| 2026-05-07 12:17 | 20.06626 | 110.25185 | 7067 ft | 231 kts | 258° |
| 2026-05-07 12:17 | 20.06283 | 110.23511 | 6803 ft | 230 kts | 258° |
| 2026-05-07 12:17 | 20.05942 | 110.21856 | 6560 ft | 229 kts | 258° |
| 2026-05-07 12:18 | 20.05599 | 110.20188 | 6303 ft | 228 kts | 258° |
| 2026-05-07 12:18 | 20.05263 | 110.18564 | 6055 ft | 226 kts | 258° |
| 2026-05-07 12:18 | 20.04922 | 110.16921 | 5781 ft | 226 kts | 256° |
| 2026-05-07 12:18 | 20.04402 | 110.15360 | 5498 ft | 226 kts | 238° |
| 2026-05-07 12:19 | 20.03286 | 110.14217 | 5216 ft | 225 kts | 205° |
| 2026-05-07 12:19 | 20.01794 | 110.13808 | 4955 ft | 224 kts | 183° |
| 2026-05-07 12:19 | 20.00237 | 110.13789 | 4689 ft | 223 kts | 179° |
| 2026-05-07 12:19 | 19.98715 | 110.13808 | 4661 ft | 207 kts | 179° |
| 2026-05-07 12:20 | 19.97336 | 110.13818 | 4589 ft | 194 kts | 179° |
| 2026-05-07 12:20 | 19.95964 | 110.13849 | 4257 ft | 194 kts | 174° |
| 2026-05-07 12:20 | 19.94698 | 110.14265 | 3941 ft | 193 kts | 145° |
| 2026-05-07 12:20 | 19.93821 | 110.15331 | 3659 ft | 190 kts | 118° |
| 2026-05-07 12:21 | 19.93438 | 110.16649 | 3357 ft | 190 kts | 95° |
| 2026-05-07 12:21 | 19.93405 | 110.18072 | 3059 ft | 189 kts | 91° |
| 2026-05-07 12:21 | 19.93397 | 110.19457 | 2785 ft | 187 kts | 92° |
| 2026-05-07 12:21 | 19.93393 | 110.20830 | 2531 ft | 185 kts | 92° |
| 2026-05-07 12:22 | 19.93395 | 110.22182 | 2315 ft | 185 kts | 92° |
| 2026-05-07 12:22 | 19.93400 | 110.23562 | 2096 ft | 184 kts | 92° |
| 2026-05-07 12:22 | 19.93406 | 110.24889 | 1981 ft | 178 kts | 92° |
| 2026-05-07 12:22 | 19.93412 | 110.26190 | 1977 ft | 177 kts | 92° |
| 2026-05-07 12:23 | 19.93415 | 110.27487 | 1979 ft | 180 kts | 92° |
| 2026-05-07 12:23 | 19.93420 | 110.28825 | 1975 ft | 181 kts | 92° |
| 2026-05-07 12:23 | 19.93426 | 110.30149 | 1982 ft | 181 kts | 92° |
| 2026-05-07 12:23 | 19.93432 | 110.31488 | 1964 ft | 176 kts | 92° |
| 2026-05-07 12:24 | 19.93438 | 110.32754 | 1974 ft | 162 kts | 92° |
| 2026-05-07 12:24 | 19.93444 | 110.33890 | 1899 ft | 149 kts | 92° |
| 2026-05-07 12:24 | 19.93447 | 110.34963 | 1728 ft | 144 kts | 93° |
| 2026-05-07 12:24 | 19.93450 | 110.36026 | 1542 ft | 142 kts | 93° |
| 2026-05-07 12:25 | 19.93452 | 110.37088 | 1358 ft | 143 kts | 93° |
| 2026-05-07 12:25 | 19.93455 | 110.38138 | 1173 ft | 143 kts | 92° |
| 2026-05-07 12:25 | 19.93458 | 110.39194 | 988 ft | 144 kts | 92° |
| 2026-05-07 12:25 | 19.93461 | 110.40268 | 802 ft | 144 kts | 92° |
| 2026-05-07 12:26 | 19.93465 | 110.41328 | 615 ft | 144 kts | 92° |
| 2026-05-07 12:26 | 19.93471 | 110.42392 | 441 ft | 144 kts | 91° |
| 2026-05-07 12:26 | 19.93474 | 110.43465 | 242 ft | 145 kts | 91° |
| 2026-05-07 12:26 | 19.93475 | 110.44524 | 88 ft | 141 kts | 91° |
| 2026-05-07 12:27 | 19.93473 | 110.45431 | 71 ft | 90 kts | 88° |
| 2026-05-07 12:27 | 19.93479 | 110.45869 | 73 ft | 37 kts | 87° |
| 2026-05-07 12:27 | 19.93541 | 110.46107 | 74 ft | 30 kts | 64° |
| 2026-05-07 12:27 | 19.93583 | 110.46200 | 75 ft | 8 kts | 64° |
| 2026-05-07 12:28 | 19.93610 | 110.46230 | 75 ft | 4 kts | 19° |
| 2026-05-07 12:28 | 19.93638 | 110.46230 | 76 ft | 4 kts | 341° |
| 2026-05-07 12:28 | 19.93661 | 110.46197 | 76 ft | 7 kts | 279° |
| 2026-05-07 12:28 | 19.93662 | 110.46137 | 76 ft | 9 kts | 269° |
| 2026-05-07 12:29 | 19.93661 | 110.46066 | 76 ft | 9 kts | 270° |
| 2026-05-07 12:29 | 19.93666 | 110.45995 | 76 ft | 8 kts | 297° |
| 2026-05-07 12:29 | 19.93715 | 110.45973 | 77 ft | 7 kts | 359° |
| 2026-05-07 12:29 | 19.93772 | 110.45978 | 78 ft | 7 kts | 26° |
| 2026-05-07 12:30 | 19.93805 | 110.46008 | 79 ft | 4 kts | 44° |
| 2026-05-07 12:30 | 19.93823 | 110.46028 | 80 ft | 2 kts | 46° |
| 2026-05-07 12:30 | 19.93843 | 110.46049 | 80 ft | 4 kts | 45° |
| 2026-05-07 12:30 | 19.93863 | 110.46070 | 80 ft | 3 kts | 45° |
| 2026-05-07 12:31 | 19.93879 | 110.46087 | 81 ft | 2 kts | 44° |
| 2026-05-07 12:31 | 19.93889 | 110.46098 | 81 ft | 0 kts | 44° |
| 2026-05-07 12:31 | 19.93890 | 110.46098 | 81 ft | 0 kts | 44° |